sensor_id;sensor_type;location;lat;lon;timestamp;pressure;altitude;pressure_sealevel;temperature;humidity
38054;BME280;23859;50.672;7.164;2023-03-16T00:00:43;96887.56;;;2.80;100.00
38054;BME280;23859;50.672;7.164;2023-03-16T00:03:10;96895.75;;;2.77;100.00
38054;BME280;23859;50.672;7.164;2023-03-16T00:05:36;96892.16;;;2.78;100.00
38054;BME280;23859;50.672;7.164;2023-03-16T00:08:03;96897.13;;;2.73;100.00
38054;BME280;23859;50.672;7.164;2023-03-16T00:10:29;96887.81;;;2.71;100.00
38054;BME280;23859;50.672;7.164;2023-03-16T00:12:56;96880.75;;;2.71;100.00
38054;BME280;23859;50.672;7.164;2023-03-16T00:15:22;96878.84;;;2.65;100.00
38054;BME280;23859;50.672;7.164;2023-03-16T00:17:48;96878.78;;;2.73;100.00
38054;BME280;23859;50.672;7.164;2023-03-16T00:20:15;96871.38;;;2.91;100.00
38054;BME280;23859;50.672;7.164;2023-03-16T00:22:42;96868.84;;;2.83;100.00
38054;BME280;23859;50.672;7.164;2023-03-16T00:25:11;96888.25;;;2.74;100.00
38054;BME280;23859;50.672;7.164;2023-03-16T00:27:37;96880.75;;;2.71;100.00
38054;BME280;23859;50.672;7.164;2023-03-16T00:30:04;96875.31;;;2.73;100.00
38054;BME280;23859;50.672;7.164;2023-03-16T00:32:33;96874.63;;;2.64;100.00
38054;BME280;23859;50.672;7.164;2023-03-16T00:35:00;96786.13;;;1.95;100.00
38054;BME280;23859;50.672;7.164;2023-03-16T00:37:30;96882.75;;;2.69;100.00
38054;BME280;23859;50.672;7.164;2023-03-16T00:39:57;96874.31;;;2.60;100.00
38054;BME280;23859;50.672;7.164;2023-03-16T00:42:26;96869.81;;;2.68;100.00
38054;BME280;23859;50.672;7.164;2023-03-16T00:44:59;96869.81;;;2.68;100.00
38054;BME280;23859;50.672;7.164;2023-03-16T00:47:28;96866.22;;;2.83;98.65
38054;BME280;23859;50.672;7.164;2023-03-16T00:49:55;96869.16;;;2.95;97.03
38054;BME280;23859;50.672;7.164;2023-03-16T00:52:22;96866.47;;;3.03;96.04
38054;BME280;23859;50.672;7.164;2023-03-16T00:54:49;96865.81;;;3.15;94.24
38054;BME280;23859;50.672;7.164;2023-03-16T00:57:18;96860.25;;;3.39;93.12
38054;BME280;23859;50.672;7.164;2023-03-16T00:59:45;96863.50;;;3.41;92.99
38054;BME280;23859;50.672;7.164;2023-03-16T01:02:12;96861.59;;;3.35;92.33
38054;BME280;23859;50.672;7.164;2023-03-16T01:04:38;96860.69;;;3.42;91.54
38054;BME280;23859;50.672;7.164;2023-03-16T01:07:07;96859.88;;;3.42;91.15
38054;BME280;23859;50.672;7.164;2023-03-16T01:09:33;96862.81;;;3.53;90.65
38054;BME280;23859;50.672;7.164;2023-03-16T01:12:03;96856.78;;;3.53;90.32
38054;BME280;23859;50.672;7.164;2023-03-16T01:14:32;96858.47;;;3.60;89.89
38054;BME280;23859;50.672;7.164;2023-03-16T01:17:00;96768.78;;;2.94;90.69
38054;BME280;23859;50.672;7.164;2023-03-16T01:19:26;96863.72;;;3.60;89.54
38054;BME280;23859;50.672;7.164;2023-03-16T01:21:52;96863.50;;;3.62;89.02
38054;BME280;23859;50.672;7.164;2023-03-16T01:24:18;96861.28;;;3.59;88.98
38054;BME280;23859;50.672;7.164;2023-03-16T01:26:44;96850.34;;;3.55;88.42
38054;BME280;23859;50.672;7.164;2023-03-16T01:29:11;96856.91;;;3.66;88.78
38054;BME280;23859;50.672;7.164;2023-03-16T01:31:38;96850.25;;;3.63;87.89
38054;BME280;23859;50.672;7.164;2023-03-16T01:34:04;96845.59;;;3.65;88.19
38054;BME280;23859;50.672;7.164;2023-03-16T01:36:30;96836.91;;;3.65;88.10
38054;BME280;23859;50.672;7.164;2023-03-16T01:38:57;96837.28;;;3.83;87.05
38054;BME280;23859;50.672;7.164;2023-03-16T01:41:25;96829.50;;;3.68;87.66
38054;BME280;23859;50.672;7.164;2023-03-16T01:43:52;96827.84;;;3.67;87.42
38054;BME280;23859;50.672;7.164;2023-03-16T01:46:28;96832.66;;;3.64;87.28
38054;BME280;23859;50.672;7.164;2023-03-16T01:49:16;96815.97;;;3.71;86.91
38054;BME280;23859;50.672;7.164;2023-03-16T01:54:29;96802.31;;;3.76;86.01
38054;BME280;23859;50.672;7.164;2023-03-16T01:57:04;96793.75;;;3.67;86.28
38054;BME280;23859;50.672;7.164;2023-03-16T01:59:36;96800.22;;;3.71;86.62
38054;BME280;23859;50.672;7.164;2023-03-16T02:02:05;96804.50;;;3.72;86.55
38054;BME280;23859;50.672;7.164;2023-03-16T02:04:39;96800.38;;;3.63;86.08
38054;BME280;23859;50.672;7.164;2023-03-16T02:07:08;96793.19;;;3.72;85.94
38054;BME280;23859;50.672;7.164;2023-03-16T02:09:38;96784.25;;;3.66;85.39
38054;BME280;23859;50.672;7.164;2023-03-16T02:12:08;96779.19;;;3.65;85.52
38054;BME280;23859;50.672;7.164;2023-03-16T02:14:35;96780.22;;;3.70;85.13
38054;BME280;23859;50.672;7.164;2023-03-16T02:17:01;96784.19;;;3.81;84.44
38054;BME280;23859;50.672;7.164;2023-03-16T02:22:15;96777.50;;;3.78;85.24
38054;BME280;23859;50.672;7.164;2023-03-16T02:24:41;96779.34;;;3.84;84.13
38054;BME280;23859;50.672;7.164;2023-03-16T02:27:11;96765.13;;;3.72;84.81
38054;BME280;23859;50.672;7.164;2023-03-16T02:32:33;96755.81;;;3.70;85.26
38054;BME280;23859;50.672;7.164;2023-03-16T02:35:01;96758.44;;;3.70;85.15
38054;BME280;23859;50.672;7.164;2023-03-16T02:37:28;96756.00;;;3.68;85.43
38054;BME280;23859;50.672;7.164;2023-03-16T02:39:54;96758.28;;;3.78;84.72
38054;BME280;23859;50.672;7.164;2023-03-16T02:42:22;96750.84;;;3.81;84.51
38054;BME280;23859;50.672;7.164;2023-03-16T02:44:54;96761.75;;;3.78;85.04
38054;BME280;23859;50.672;7.164;2023-03-16T02:47:33;96758.44;;;3.70;85.65
38054;BME280;23859;50.672;7.164;2023-03-16T02:50:01;96755.94;;;3.62;86.16
38054;BME280;23859;50.672;7.164;2023-03-16T02:52:34;96651.31;;;3.04;85.64
38054;BME280;23859;50.672;7.164;2023-03-16T02:55:01;96746.03;;;3.57;86.42
38054;BME280;23859;50.672;7.164;2023-03-16T02:57:27;96743.19;;;3.59;86.80
38054;BME280;23859;50.672;7.164;2023-03-16T02:59:54;96744.75;;;3.53;87.61
38054;BME280;23859;50.672;7.164;2023-03-16T03:02:20;96754.41;;;3.46;87.58
38054;BME280;23859;50.672;7.164;2023-03-16T03:04:46;96752.56;;;3.47;87.07
38054;BME280;23859;50.672;7.164;2023-03-16T03:07:13;96749.72;;;3.42;87.78
38054;BME280;23859;50.672;7.164;2023-03-16T03:09:40;96742.41;;;3.58;86.96
38054;BME280;23859;50.672;7.164;2023-03-16T03:12:08;96738.47;;;3.48;86.79
38054;BME280;23859;50.672;7.164;2023-03-16T03:14:35;96738.06;;;3.51;87.15
38054;BME280;23859;50.672;7.164;2023-03-16T03:17:08;96740.13;;;3.55;86.99
38054;BME280;23859;50.672;7.164;2023-03-16T03:19:35;96736.03;;;3.46;87.62
38054;BME280;23859;50.672;7.164;2023-03-16T03:22:04;96737.16;;;3.58;86.14
38054;BME280;23859;50.672;7.164;2023-03-16T03:24:32;96724.16;;;3.50;86.20
38054;BME280;23859;50.672;7.164;2023-03-16T03:26:59;96723.97;;;3.52;86.04
38054;BME280;23859;50.672;7.164;2023-03-16T03:29:26;96719.94;;;3.56;85.60
38054;BME280;23859;50.672;7.164;2023-03-16T03:32:00;96717.97;;;3.58;86.06
38054;BME280;23859;50.672;7.164;2023-03-16T03:34:27;96720.97;;;3.55;85.87
38054;BME280;23859;50.672;7.164;2023-03-16T03:36:54;96719.94;;;3.56;86.13
38054;BME280;23859;50.672;7.164;2023-03-16T03:39:20;96714.28;;;3.52;86.10
38054;BME280;23859;50.672;7.164;2023-03-16T03:41:46;96715.56;;;3.63;85.48
38054;BME280;23859;50.672;7.164;2023-03-16T03:44:12;96726.03;;;3.56;85.62
38054;BME280;23859;50.672;7.164;2023-03-16T03:46:38;96727.16;;;3.68;85.44
38054;BME280;23859;50.672;7.164;2023-03-16T03:49:04;96728.56;;;3.71;84.84
38054;BME280;23859;50.672;7.164;2023-03-16T03:51:33;96722.56;;;3.56;85.81
38054;BME280;23859;50.672;7.164;2023-03-16T03:53:59;96721.66;;;3.63;85.33
38054;BME280;23859;50.672;7.164;2023-03-16T03:56:25;96712.91;;;3.56;86.27
38054;BME280;23859;50.672;7.164;2023-03-16T03:58:51;96713.34;;;3.60;85.44
38054;BME280;23859;50.672;7.164;2023-03-16T04:01:17;96716.81;;;3.67;85.21
38054;BME280;23859;50.672;7.164;2023-03-16T04:03:44;96715.34;;;3.58;85.39
38054;BME280;23859;50.672;7.164;2023-03-16T04:06:10;96715.56;;;3.63;85.54
38054;BME280;23859;50.672;7.164;2023-03-16T04:08:36;96714.19;;;3.67;85.55
38054;BME280;23859;50.672;7.164;2023-03-16T04:11:02;96723.69;;;3.68;84.64
38054;BME280;23859;50.672;7.164;2023-03-16T04:13:29;96720.53;;;3.79;84.03
38054;BME280;23859;50.672;7.164;2023-03-16T04:16:01;96715.28;;;3.79;83.97
38054;BME280;23859;50.672;7.164;2023-03-16T04:18:30;96712.19;;;3.69;84.25
38054;BME280;23859;50.672;7.164;2023-03-16T04:21:07;96725.19;;;3.77;84.55
38054;BME280;23859;50.672;7.164;2023-03-16T04:23:37;96717.09;;;3.72;84.61
38054;BME280;23859;50.672;7.164;2023-03-16T04:26:03;96710.81;;;3.73;84.70
38054;BME280;23859;50.672;7.164;2023-03-16T04:28:31;96712.44;;;3.74;84.47
38054;BME280;23859;50.672;7.164;2023-03-16T04:31:04;96714.16;;;3.88;84.39
38054;BME280;23859;50.672;7.164;2023-03-16T04:33:32;96708.91;;;3.88;83.83
38054;BME280;23859;50.672;7.164;2023-03-16T04:35:59;96704.03;;;3.85;83.90
38054;BME280;23859;50.672;7.164;2023-03-16T04:38:25;96702.81;;;3.81;84.78
38054;BME280;23859;50.672;7.164;2023-03-16T04:40:51;96700.41;;;3.86;83.78
38054;BME280;23859;50.672;7.164;2023-03-16T04:43:17;96703.25;;;3.84;84.20
38054;BME280;23859;50.672;7.164;2023-03-16T04:45:43;96698.25;;;3.95;83.89
38054;BME280;23859;50.672;7.164;2023-03-16T04:48:09;96696.25;;;3.97;84.04
38054;BME280;23859;50.672;7.164;2023-03-16T04:50:35;96691.38;;;3.94;83.88
38054;BME280;23859;50.672;7.164;2023-03-16T04:53:02;96688.31;;;3.91;84.44
38054;BME280;23859;50.672;7.164;2023-03-16T04:55:29;96687.53;;;3.91;84.99
38054;BME280;23859;50.672;7.164;2023-03-16T04:57:56;96681.03;;;3.87;85.38
38054;BME280;23859;50.672;7.164;2023-03-16T05:00:22;96678.06;;;3.96;84.80
38054;BME280;23859;50.672;7.164;2023-03-16T05:02:50;96678.88;;;3.96;84.03
38054;BME280;23859;50.672;7.164;2023-03-16T05:05:19;96677.34;;;3.81;85.58
38054;BME280;23859;50.672;7.164;2023-03-16T05:07:47;96673.91;;;3.74;85.91
38054;BME280;23859;50.672;7.164;2023-03-16T05:10:16;96677.31;;;3.75;85.91
38054;BME280;23859;50.672;7.164;2023-03-16T05:12:44;96574.41;;;3.18;85.49
38054;BME280;23859;50.672;7.164;2023-03-16T05:15:10;96677.97;;;3.83;85.78
38054;BME280;23859;50.672;7.164;2023-03-16T05:17:36;96676.16;;;3.84;86.27
38054;BME280;23859;50.672;7.164;2023-03-16T05:20:03;96668.94;;;3.92;85.24
38054;BME280;23859;50.672;7.164;2023-03-16T05:22:33;96677.41;;;3.88;85.68
38054;BME280;23859;50.672;7.164;2023-03-16T05:25:00;96682.66;;;3.88;85.62
38054;BME280;23859;50.672;7.164;2023-03-16T05:27:29;96680.56;;;3.77;86.29
38054;BME280;23859;50.672;7.164;2023-03-16T05:29:55;96674.69;;;3.75;86.90
38054;BME280;23859;50.672;7.164;2023-03-16T05:32:21;96676.56;;;3.81;86.14
38054;BME280;23859;50.672;7.164;2023-03-16T05:34:47;96680.94;;;3.74;86.36
38054;BME280;23859;50.672;7.164;2023-03-16T05:37:13;96689.91;;;3.86;86.19
38054;BME280;23859;50.672;7.164;2023-03-16T05:39:39;96687.28;;;3.86;86.69
38054;BME280;23859;50.672;7.164;2023-03-16T05:42:05;96571.38;;;3.15;86.23
38054;BME280;23859;50.672;7.164;2023-03-16T05:44:32;96683.03;;;3.85;85.97
38054;BME280;23859;50.672;7.164;2023-03-16T05:46:58;96691.53;;;3.87;86.36
38054;BME280;23859;50.672;7.164;2023-03-16T05:49:24;96682.16;;;3.78;87.57
38054;BME280;23859;50.672;7.164;2023-03-16T05:51:51;96679.19;;;3.81;87.52
38054;BME280;23859;50.672;7.164;2023-03-16T05:54:17;96677.97;;;3.83;87.09
38054;BME280;23859;50.672;7.164;2023-03-16T05:56:43;96680.97;;;3.80;87.14
38054;BME280;23859;50.672;7.164;2023-03-16T05:59:09;96686.72;;;3.90;87.29
38054;BME280;23859;50.672;7.164;2023-03-16T06:01:35;96684.91;;;3.91;86.80
38054;BME280;23859;50.672;7.164;2023-03-16T06:04:02;96689.19;;;3.98;86.78
38054;BME280;23859;50.672;7.164;2023-03-16T06:06:33;96711.16;;;3.91;86.72
38054;BME280;23859;50.672;7.164;2023-03-16T06:09:01;96700.53;;;4.05;86.17
38054;BME280;23859;50.672;7.164;2023-03-16T06:11:27;96696.50;;;4.02;86.43
38054;BME280;23859;50.672;7.164;2023-03-16T06:13:53;96687.53;;;3.91;86.78
38054;BME280;23859;50.672;7.164;2023-03-16T06:16:22;96694.47;;;4.04;86.27
38054;BME280;23859;50.672;7.164;2023-03-16T06:18:48;96696.56;;;4.15;85.66
38054;BME280;23859;50.672;7.164;2023-03-16T06:21:14;96691.44;;;4.01;86.27
38054;BME280;23859;50.672;7.164;2023-03-16T06:23:40;96701.81;;;4.15;85.94
38054;BME280;23859;50.672;7.164;2023-03-16T06:26:06;96703.41;;;4.10;86.14
38054;BME280;23859;50.672;7.164;2023-03-16T06:28:33;96687.56;;;4.31;85.27
38054;BME280;23859;50.672;7.164;2023-03-16T06:30:59;96616.63;;;3.57;84.33
38054;BME280;23859;50.672;7.164;2023-03-16T06:33:25;96696.63;;;4.28;85.16
38054;BME280;23859;50.672;7.164;2023-03-16T06:35:52;96702.34;;;4.45;84.43
38054;BME280;23859;50.672;7.164;2023-03-16T06:38:18;96703.88;;;4.66;83.45
38054;BME280;23859;50.672;7.164;2023-03-16T06:40:45;96711.75;;;4.60;83.77
38054;BME280;23859;50.672;7.164;2023-03-16T06:43:11;96706.13;;;4.76;82.75
38054;BME280;23859;50.672;7.164;2023-03-16T06:45:37;96713.63;;;4.79;82.63
38054;BME280;23859;50.672;7.164;2023-03-16T06:48:03;96716.72;;;4.89;82.23
38054;BME280;23859;50.672;7.164;2023-03-16T06:50:29;96712.69;;;4.99;81.24
38054;BME280;23859;50.672;7.164;2023-03-16T06:52:55;96704.94;;;4.85;81.63
38054;BME280;23859;50.672;7.164;2023-03-16T06:55:21;96711.47;;;4.89;81.85
38054;BME280;23859;50.672;7.164;2023-03-16T06:57:48;96705.38;;;4.88;82.27
38054;BME280;23859;50.672;7.164;2023-03-16T07:00:14;96702.41;;;5.11;81.57
38054;BME280;23859;50.672;7.164;2023-03-16T07:02:41;96705.63;;;5.19;80.92
38054;BME280;23859;50.672;7.164;2023-03-16T07:05:09;96717.59;;;5.22;80.42
38054;BME280;23859;50.672;7.164;2023-03-16T07:07:45;96710.53;;;5.28;79.95
38054;BME280;23859;50.672;7.164;2023-03-16T07:10:13;96724.09;;;5.38;79.67
38054;BME280;23859;50.672;7.164;2023-03-16T07:12:40;96723.13;;;5.52;78.87
38054;BME280;23859;50.672;7.164;2023-03-16T07:15:07;96727.41;;;5.79;77.77
38054;BME280;23859;50.672;7.164;2023-03-16T07:17:33;96731.41;;;5.75;77.73
38054;BME280;23859;50.672;7.164;2023-03-16T07:19:59;96624.91;;;5.45;76.88
38054;BME280;23859;50.672;7.164;2023-03-16T07:22:30;96728.59;;;5.90;77.42
38054;BME280;23859;50.672;7.164;2023-03-16T07:24:57;96732.44;;;6.19;76.23
38054;BME280;23859;50.672;7.164;2023-03-16T07:27:23;96738.34;;;6.08;76.77
38054;BME280;23859;50.672;7.164;2023-03-16T07:29:50;96747.38;;;6.45;74.93
38054;BME280;23859;50.672;7.164;2023-03-16T07:32:17;96740.31;;;6.45;74.44
38054;BME280;23859;50.672;7.164;2023-03-16T07:34:44;96742.88;;;6.64;73.99
38054;BME280;23859;50.672;7.164;2023-03-16T07:37:10;96754.41;;;6.70;74.16
38054;BME280;23859;50.672;7.164;2023-03-16T07:39:36;96744.25;;;6.80;72.64
38054;BME280;23859;50.672;7.164;2023-03-16T07:42:03;96742.59;;;6.85;72.62
38054;BME280;23859;50.672;7.164;2023-03-16T07:44:29;96746.16;;;7.10;72.12
38054;BME280;23859;50.672;7.164;2023-03-16T07:46:56;96746.34;;;7.09;71.80
38054;BME280;23859;50.672;7.164;2023-03-16T07:49:22;96747.41;;;7.01;72.39
38054;BME280;23859;50.672;7.164;2023-03-16T07:51:48;96738.22;;;7.10;71.20
38054;BME280;23859;50.672;7.164;2023-03-16T07:54:14;96742.91;;;7.08;71.78
38054;BME280;23859;50.672;7.164;2023-03-16T07:56:41;96745.25;;;7.29;71.32
38054;BME280;23859;50.672;7.164;2023-03-16T07:59:07;96747.34;;;7.14;72.14
38054;BME280;23859;50.672;7.164;2023-03-16T08:01:33;96745.94;;;7.49;71.52
38054;BME280;23859;50.672;7.164;2023-03-16T08:04:00;96739.69;;;7.37;70.44
38054;BME280;23859;50.672;7.164;2023-03-16T08:06:27;96729.91;;;7.07;72.65
38054;BME280;23859;50.672;7.164;2023-03-16T08:08:53;96732.38;;;7.02;72.17
38054;BME280;23859;50.672;7.164;2023-03-16T08:11:19;96734.63;;;6.98;72.44
38054;BME280;23859;50.672;7.164;2023-03-16T08:13:51;96734.44;;;6.93;73.10
38054;BME280;23859;50.672;7.164;2023-03-16T08:16:22;96735.63;;;7.04;72.88
38054;BME280;23859;50.672;7.164;2023-03-16T08:18:49;96725.06;;;7.04;73.58
38054;BME280;23859;50.672;7.164;2023-03-16T08:21:17;96717.19;;;6.97;72.98
38054;BME280;23859;50.672;7.164;2023-03-16T08:23:44;96728.59;;;6.91;73.98
38054;BME280;23859;50.672;7.164;2023-03-16T08:26:20;96717.03;;;6.92;74.34
38054;BME280;23859;50.672;7.164;2023-03-16T08:28:49;96725.50;;;6.94;74.61
38054;BME280;23859;50.672;7.164;2023-03-16T08:31:17;96730.31;;;7.10;74.32
38054;BME280;23859;50.672;7.164;2023-03-16T08:33:45;96736.38;;;7.17;73.47
38054;BME280;23859;50.672;7.164;2023-03-16T08:36:13;96748.78;;;7.10;74.06
38054;BME280;23859;50.672;7.164;2023-03-16T08:38:40;96742.84;;;7.21;75.09
38054;BME280;23859;50.672;7.164;2023-03-16T08:41:07;96725.06;;;7.04;73.62
38054;BME280;23859;50.672;7.164;2023-03-16T08:43:34;96725.38;;;7.20;73.87
38054;BME280;23859;50.672;7.164;2023-03-16T08:46:02;96745.94;;;7.49;73.50
38054;BME280;23859;50.672;7.164;2023-03-16T08:48:29;96739.03;;;7.48;72.26
38054;BME280;23859;50.672;7.164;2023-03-16T08:50:55;96737.78;;;7.57;71.79
38054;BME280;23859;50.672;7.164;2023-03-16T08:53:21;96729.25;;;7.55;72.44
38054;BME280;23859;50.672;7.164;2023-03-16T08:55:47;96732.34;;;7.45;73.91
38054;BME280;23859;50.672;7.164;2023-03-16T08:58:13;96738.44;;;7.77;72.04
38054;BME280;23859;50.672;7.164;2023-03-16T09:00:40;96730.75;;;7.99;71.20
38054;BME280;23859;50.672;7.164;2023-03-16T09:03:06;96722.56;;;7.77;71.41
38054;BME280;23859;50.672;7.164;2023-03-16T09:05:32;96713.94;;;7.63;73.55
38054;BME280;23859;50.672;7.164;2023-03-16T09:07:58;96716.13;;;7.73;72.43
38054;BME280;23859;50.672;7.164;2023-03-16T09:10:26;96719.34;;;7.44;73.03
38054;BME280;23859;50.672;7.164;2023-03-16T09:12:52;96726.72;;;7.66;72.48
38054;BME280;23859;50.672;7.164;2023-03-16T09:15:20;96741.59;;;8.16;70.50
38054;BME280;23859;50.672;7.164;2023-03-16T09:17:46;96744.84;;;8.36;70.21
38054;BME280;23859;50.672;7.164;2023-03-16T09:20:14;96739.47;;;8.00;70.70
38054;BME280;23859;50.672;7.164;2023-03-16T09:22:42;96729.91;;;7.75;71.39
38054;BME280;23859;50.672;7.164;2023-03-16T09:25:08;96732.78;;;7.97;70.44
38054;BME280;23859;50.672;7.164;2023-03-16T09:27:36;96726.94;;;8.38;69.47
38054;BME280;23859;50.672;7.164;2023-03-16T09:30:04;96730.03;;;8.53;68.81
38054;BME280;23859;50.672;7.164;2023-03-16T09:32:31;96734.66;;;8.39;70.10
38054;BME280;23859;50.672;7.164;2023-03-16T09:34:58;96734.00;;;8.61;68.90
38054;BME280;23859;50.672;7.164;2023-03-16T09:37:24;96734.47;;;8.59;68.84
38054;BME280;23859;50.672;7.164;2023-03-16T09:39:51;96733.22;;;8.61;68.12
38054;BME280;23859;50.672;7.164;2023-03-16T09:42:36;96729.38;;;8.57;68.04
38054;BME280;23859;50.672;7.164;2023-03-16T09:45:25;96728.72;;;8.61;67.87
38054;BME280;23859;50.672;7.164;2023-03-16T09:47:59;96732.25;;;8.91;67.09
38054;BME280;23859;50.672;7.164;2023-03-16T09:50:32;96692.78;;;8.72;65.99
38054;BME280;23859;50.672;7.164;2023-03-16T09:53:00;96735.69;;;8.92;66.52
38054;BME280;23859;50.672;7.164;2023-03-16T09:55:36;96727.00;;;9.03;66.34
38054;BME280;23859;50.672;7.164;2023-03-16T09:58:16;96715.81;;;9.19;65.48
38054;BME280;23859;50.672;7.164;2023-03-16T10:03:50;96719.00;;;8.91;66.12
38054;BME280;23859;50.672;7.164;2023-03-16T10:06:21;96709.31;;;8.85;66.53
38054;BME280;23859;50.672;7.164;2023-03-16T10:11:51;96703.06;;;8.62;67.40
38054;BME280;23859;50.672;7.164;2023-03-16T10:14:27;96718.44;;;8.71;67.20
38054;BME280;23859;50.672;7.164;2023-03-16T10:19:33;96693.72;;;8.95;66.25
38054;BME280;23859;50.672;7.164;2023-03-16T10:22:51;96713.13;;;9.07;66.29
38054;BME280;23859;50.672;7.164;2023-03-16T10:27:35;96703.03;;;9.16;64.92
38054;BME280;23859;50.672;7.164;2023-03-16T10:30:23;96725.69;;;9.12;65.12
38054;BME280;23859;50.672;7.164;2023-03-16T10:32:50;96690.66;;;9.10;66.69
38054;BME280;23859;50.672;7.164;2023-03-16T10:38:42;96680.22;;;9.15;64.56
38054;BME280;23859;50.672;7.164;2023-03-16T10:43:59;96691.28;;;9.52;64.31
38054;BME280;23859;50.672;7.164;2023-03-16T10:46:40;96689.84;;;9.68;63.24
38054;BME280;23859;50.672;7.164;2023-03-16T10:51:45;96707.63;;;10.70;61.97
38054;BME280;23859;50.672;7.164;2023-03-16T10:54:33;96714.03;;;10.97;59.59
38054;BME280;23859;50.672;7.164;2023-03-16T10:57:34;96713.78;;;11.10;57.72
38054;BME280;23859;50.672;7.164;2023-03-16T11:00:07;96698.00;;;10.92;58.02
38054;BME280;23859;50.672;7.164;2023-03-16T11:02:46;96695.63;;;10.67;58.72
38054;BME280;23859;50.672;7.164;2023-03-16T11:05:34;96695.28;;;11.15;57.80
38054;BME280;23859;50.672;7.164;2023-03-16T11:08:11;96692.66;;;11.03;57.58
38054;BME280;23859;50.672;7.164;2023-03-16T11:10:44;96705.47;;;11.90;55.12
38054;BME280;23859;50.672;7.164;2023-03-16T11:13:15;96697.28;;;11.80;54.69
38054;BME280;23859;50.672;7.164;2023-03-16T11:15:59;96696.16;;;11.59;56.76
38054;BME280;23859;50.672;7.164;2023-03-16T11:18:42;96703.84;;;12.38;56.42
38054;BME280;23859;50.672;7.164;2023-03-16T11:21:16;96699.63;;;12.79;52.58
38054;BME280;23859;50.672;7.164;2023-03-16T11:23:48;96695.22;;;12.68;53.15
38054;BME280;23859;50.672;7.164;2023-03-16T11:26:26;96686.44;;;12.68;53.35
38054;BME280;23859;50.672;7.164;2023-03-16T11:34:29;96693.94;;;13.35;51.84
38054;BME280;23859;50.672;7.164;2023-03-16T11:46:05;96666.81;;;13.69;49.62
38054;BME280;23859;50.672;7.164;2023-03-16T11:48:40;96670.22;;;13.91;49.43
38054;BME280;23859;50.672;7.164;2023-03-16T11:52:00;96666.44;;;13.82;48.97
38054;BME280;23859;50.672;7.164;2023-03-16T11:56:47;96658.03;;;13.42;50.81
38054;BME280;23859;50.672;7.164;2023-03-16T12:02:19;96664.38;;;14.66;47.67
38054;BME280;23859;50.672;7.164;2023-03-16T12:07:46;96660.38;;;15.25;45.74
38054;BME280;23859;50.672;7.164;2023-03-16T12:10:23;96664.06;;;14.17;48.62
38054;BME280;23859;50.672;7.164;2023-03-16T12:15:45;96588.59;;;13.32;49.82
38054;BME280;23859;50.672;7.164;2023-03-16T12:18:14;96635.25;;;13.93;48.70
38054;BME280;23859;50.672;7.164;2023-03-16T12:20:59;96638.47;;;13.63;50.12
38054;BME280;23859;50.672;7.164;2023-03-16T12:23:37;96622.16;;;13.29;50.41
38054;BME280;23859;50.672;7.164;2023-03-16T12:26:05;96626.75;;;13.64;49.29
38054;BME280;23859;50.672;7.164;2023-03-16T12:28:31;96604.03;;;13.57;49.19
38054;BME280;23859;50.672;7.164;2023-03-16T12:31:18;96620.72;;;14.46;47.72
38054;BME280;23859;50.672;7.164;2023-03-16T12:39:39;96602.00;;;15.12;46.67
38054;BME280;23859;50.672;7.164;2023-03-16T12:45:25;96615.75;;;15.45;45.09
38054;BME280;23859;50.672;7.164;2023-03-16T12:48:12;96592.53;;;14.75;46.86
38054;BME280;23859;50.672;7.164;2023-03-16T12:50:53;96590.00;;;14.54;47.27
38054;BME280;23859;50.672;7.164;2023-03-16T12:56:14;96575.16;;;13.85;48.02
38054;BME280;23859;50.672;7.164;2023-03-16T12:58:49;96574.59;;;13.83;47.97
38054;BME280;23859;50.672;7.164;2023-03-16T13:01:16;96565.34;;;13.91;48.92
38054;BME280;23859;50.672;7.164;2023-03-16T13:03:45;96563.19;;;13.93;49.54
38054;BME280;23859;50.672;7.164;2023-03-16T13:06:21;96540.81;;;13.62;49.09
38054;BME280;23859;50.672;7.164;2023-03-16T13:08:55;96542.03;;;13.81;49.85
38054;BME280;23859;50.672;7.164;2023-03-16T13:11:24;96548.16;;;13.45;49.91
38054;BME280;23859;50.672;7.164;2023-03-16T13:14:15;96542.44;;;13.63;49.67
38054;BME280;23859;50.672;7.164;2023-03-16T13:17:20;96530.06;;;13.84;49.32
38054;BME280;23859;50.672;7.164;2023-03-16T13:20:03;96523.66;;;13.48;49.83
38054;BME280;23859;50.672;7.164;2023-03-16T13:22:44;96515.78;;;13.32;49.87
38054;BME280;23859;50.672;7.164;2023-03-16T13:27:54;96508.47;;;13.18;50.02
38054;BME280;23859;50.672;7.164;2023-03-16T13:30:24;96507.34;;;13.14;50.76
38054;BME280;23859;50.672;7.164;2023-03-16T13:32:55;96493.91;;;12.99;51.56
38054;BME280;23859;50.672;7.164;2023-03-16T13:35:28;96491.56;;;13.07;50.57
38054;BME280;23859;50.672;7.164;2023-03-16T13:38:03;96511.25;;;13.32;50.64
38054;BME280;23859;50.672;7.164;2023-03-16T13:40:30;96501.16;;;13.34;51.14
38054;BME280;23859;50.672;7.164;2023-03-16T13:42:57;96502.50;;;13.78;49.43
38054;BME280;23859;50.672;7.164;2023-03-16T13:45:36;96489.34;;;14.08;49.17
38054;BME280;23859;50.672;7.164;2023-03-16T13:48:03;96489.69;;;14.16;49.15
38054;BME280;23859;50.672;7.164;2023-03-16T13:50:34;96490.03;;;13.89;49.74
38054;BME280;23859;50.672;7.164;2023-03-16T13:53:09;96472.41;;;13.88;49.34
38054;BME280;23859;50.672;7.164;2023-03-16T13:55:37;96483.84;;;13.83;49.93
38054;BME280;23859;50.672;7.164;2023-03-16T13:58:03;96494.41;;;14.04;48.51
38054;BME280;23859;50.672;7.164;2023-03-16T14:00:33;96483.03;;;14.24;48.53
38054;BME280;23859;50.672;7.164;2023-03-16T14:03:13;96485.31;;;14.66;46.67
38054;BME280;23859;50.672;7.164;2023-03-16T14:05:41;96500.41;;;15.47;45.44
38054;BME280;23859;50.672;7.164;2023-03-16T14:08:18;96496.81;;;16.31;43.17
38054;BME280;23859;50.672;7.164;2023-03-16T14:10:45;96483.66;;;16.29;42.71
38054;BME280;23859;50.672;7.164;2023-03-16T14:15:47;96479.38;;;16.18;42.66
38054;BME280;23859;50.672;7.164;2023-03-16T14:18:16;96474.03;;;16.18;42.81
38054;BME280;23859;50.672;7.164;2023-03-16T14:20:46;96403.03;;;15.43;43.17
38054;BME280;23859;50.672;7.164;2023-03-16T14:23:25;96440.34;;;14.39;46.44
38054;BME280;23859;50.672;7.164;2023-03-16T14:25:53;96423.00;;;13.80;47.94
38054;BME280;23859;50.672;7.164;2023-03-16T14:28:32;96411.22;;;13.25;49.05
38054;BME280;23859;50.672;7.164;2023-03-16T14:31:09;96335.28;;;12.60;50.31